Time;durP1;ratioP1;P1;durP2;ratioP2;P2;SDS_P1;SDS_P2;PMS_P1;PMS_P2;Temp;Humidity;BMP_temperature;BMP_pressure;BME280_temperature;BME280_humidity;BME280_pressure;Samples;Min_cycle;Max_cycle;Signal;HPM_P1;HPM_P2
2023/03/10 00:01:18;;;;;;;36.90;24.37;;;;;;;;;;5016173;28;20073;-71
2023/03/10 00:03:44;;;;;;;42.42;25.25;;;;;;;;;;4982320;28;20673;-71
2023/03/10 00:06:10;;;;;;;43.10;24.40;;;;;;;;;;5016229;28;20149;-68
2023/03/10 00:08:36;;;;;;;38.13;26.08;;;;;;;;;;5016168;28;20031;-70
2023/03/10 00:11:01;;;;;;;27.27;18.83;;;;;;;;;;5016019;28;20397;-69
2023/03/10 00:13:26;;;;;;;27.20;18.50;;;;;;;;;;5015992;28;20042;-68
2023/03/10 00:15:52;;;;;;;30.42;19.58;;;;;;;;;;5016054;28;20504;-68
2023/03/10 00:18:17;;;;;;;28.25;18.75;;;;;;;;;;4997107;28;20037;-66
2023/03/10 00:20:42;;;;;;;38.33;20.75;;;;;;;;;;5015526;28;20069;-66
2023/03/10 00:23:07;;;;;;;34.90;20.60;;;;;;;;;;5015604;28;20034;-66
2023/03/10 00:25:33;;;;;;;29.23;18.13;;;;;;;;;;5015455;28;20425;-67
2023/03/10 00:27:58;;;;;;;25.95;17.85;;;;;;;;;;5015441;28;20113;-65
2023/03/10 00:30:24;;;;;;;28.00;18.42;;;;;;;;;;5015383;28;20149;-65
2023/03/10 00:32:50;;;;;;;32.08;20.17;;;;;;;;;;4981439;28;20430;-67
2023/03/10 00:35:15;;;;;;;35.45;21.00;;;;;;;;;;5015364;28;20060;-71
2023/03/10 00:37:40;;;;;;;36.38;21.15;;;;;;;;;;5015454;28;20092;-71
2023/03/10 00:40:13;;;;;;;36.72;21.35;;;;;;;;;;5015742;28;20022;-75
2023/03/10 00:42:38;;;;;;;33.80;19.80;;;;;;;;;;4998592;28;20389;-74
2023/03/10 00:45:05;;;;;;;32.30;19.52;;;;;;;;;;4998364;28;20058;-73
2023/03/10 00:47:30;;;;;;;27.33;18.48;;;;;;;;;;5015977;28;20370;-74
2023/03/10 00:49:56;;;;;;;28.67;18.20;;;;;;;;;;5015858;28;20053;-74
2023/03/10 00:52:22;;;;;;;28.67;18.38;;;;;;;;;;5015905;28;20034;-74
2023/03/10 00:54:47;;;;;;;27.63;17.85;;;;;;;;;;4998306;28;20038;-74
2023/03/10 00:57:12;;;;;;;29.92;18.33;;;;;;;;;;5015762;28;20524;-73
2023/03/10 00:59:43;;;;;;;28.88;18.73;;;;;;;;;;4998098;28;20088;-73
2023/03/10 01:02:08;;;;;;;28.60;18.40;;;;;;;;;;5015792;28;20177;-74
2023/03/10 01:04:34;;;;;;;29.70;18.95;;;;;;;;;;5014741;28;20119;-74
2023/03/10 01:07:01;;;;;;;28.52;18.42;;;;;;;;;;4997932;28;20449;-75
2023/03/10 01:09:27;;;;;;;27.95;18.10;;;;;;;;;;4998497;28;20038;-75
2023/03/10 01:11:52;;;;;;;26.88;18.45;;;;;;;;;;4997250;28;20056;-68
2023/03/10 01:14:18;;;;;;;28.45;18.15;;;;;;;;;;5014674;28;20460;-68
2023/03/10 01:16:43;;;;;;;30.42;18.05;;;;;;;;;;4997131;28;20096;-70
2023/03/10 01:19:10;;;;;;;27.90;17.15;;;;;;;;;;5015095;28;20074;-76
2023/03/10 01:21:37;;;;;;;25.48;16.83;;;;;;;;;;5015490;28;20053;-78
2023/03/10 01:24:04;;;;;;;25.30;15.88;;;;;;;;;;5015093;28;20038;-76
2023/03/10 01:26:29;;;;;;;22.42;15.77;;;;;;;;;;5015015;28;20080;-75
2023/03/10 01:28:55;;;;;;;27.95;16.42;;;;;;;;;;4997259;28;20046;-73
2023/03/10 01:31:21;;;;;;;24.48;15.88;;;;;;;;;;4998017;28;20029;-72
2023/03/10 01:33:46;;;;;;;23.92;16.13;;;;;;;;;;4997395;28;20080;-72
2023/03/10 01:36:14;;;;;;;24.02;16.08;;;;;;;;;;4997664;28;20034;-72
2023/03/10 01:38:40;;;;;;;25.58;15.93;;;;;;;;;;4997164;28;20030;-73
2023/03/10 01:41:12;;;;;;;24.05;15.82;;;;;;;;;;5015057;28;20029;-73
2023/03/10 01:43:38;;;;;;;22.52;15.10;;;;;;;;;;4997409;28;20048;-76
2023/03/10 01:46:22;;;;;;;22.40;15.35;;;;;;;;;;5014822;28;20113;-75
2023/03/10 01:48:49;;;;;;;20.77;14.00;;;;;;;;;;4996998;28;20045;-76
2023/03/10 01:51:14;;;;;;;21.42;14.00;;;;;;;;;;4996459;28;20053;-67
2023/03/10 01:53:40;;;;;;;21.67;14.18;;;;;;;;;;4996107;28;20486;-65
2023/03/10 01:56:05;;;;;;;19.13;13.15;;;;;;;;;;5013623;28;20169;-68
2023/03/10 01:58:38;;;;;;;20.95;13.30;;;;;;;;;;5013780;28;20034;-64
2023/03/10 02:01:04;;;;;;;24.77;13.82;;;;;;;;;;4996379;28;20038;-67
2023/03/10 02:03:34;;;;;;;20.80;14.07;;;;;;;;;;4996264;28;20085;-65
2023/03/10 02:06:03;;;;;;;21.73;13.90;;;;;;;;;;4979891;28;20406;-66
2023/03/10 02:08:31;;;;;;;21.45;14.73;;;;;;;;;;5013701;28;20116;-68
2023/03/10 02:10:58;;;;;;;19.42;13.82;;;;;;;;;;4996046;28;20072;-68
2023/03/10 02:13:23;;;;;;;21.67;14.10;;;;;;;;;;5013472;28;20504;-67
2023/03/10 02:15:48;;;;;;;22.13;13.85;;;;;;;;;;5013372;28;20041;-65
2023/03/10 02:18:16;;;;;;;20.95;13.50;;;;;;;;;;4995823;28;20033;-67
2023/03/10 02:20:44;;;;;;;21.45;13.50;;;;;;;;;;5013435;28;20117;-67
2023/03/10 02:23:14;;;;;;;18.30;13.45;;;;;;;;;;4996050;28;20121;-66
2023/03/10 02:25:52;;;;;;;22.98;15.05;;;;;;;;;;4995842;28;20038;-66
2023/03/10 02:28:19;;;;;;;23.60;15.05;;;;;;;;;;4995845;28;20080;-68
2023/03/10 02:30:46;;;;;;;22.95;15.20;;;;;;;;;;4996372;28;20451;-68
2023/03/10 02:33:13;;;;;;;22.20;14.43;;;;;;;;;;4996363;28;20088;-68
2023/03/10 02:35:39;;;;;;;19.65;13.10;;;;;;;;;;4996641;28;20088;-65
2023/03/10 02:38:09;;;;;;;18.73;12.05;;;;;;;;;;4996496;28;20021;-66
2023/03/10 02:40:39;;;;;;;19.23;12.50;;;;;;;;;;4995948;28;20057;-68
2023/03/10 02:43:23;;;;;;;17.35;12.35;;;;;;;;;;4997308;28;20065;-68
2023/03/10 02:45:54;;;;;;;17.27;11.90;;;;;;;;;;4996650;28;20038;-68
2023/03/10 02:48:25;;;;;;;21.48;11.30;;;;;;;;;;4996296;28;20100;-68
2023/03/10 02:50:50;;;;;;;20.92;11.13;;;;;;;;;;5014313;28;20042;-70
2023/03/10 02:53:20;;;;;;;18.40;11.38;;;;;;;;;;4996348;28;20046;-68
2023/03/10 02:55:47;;;;;;;16.90;10.57;;;;;;;;;;4996550;28;20125;-68
2023/03/10 02:58:13;;;;;;;16.98;9.85;;;;;;;;;;4996674;28;20141;-66
2023/03/10 03:00:39;;;;;;;14.02;9.70;;;;;;;;;;4996775;28;20092;-68
2023/03/10 03:03:08;;;;;;;15.15;9.25;;;;;;;;;;4996158;28;20053;-69
2023/03/10 03:05:34;;;;;;;15.18;10.32;;;;;;;;;;4996903;28;20446;-71
2023/03/10 03:07:59;;;;;;;15.00;10.20;;;;;;;;;;4997202;28;20048;-72
2023/03/10 03:10:24;;;;;;;14.65;10.38;;;;;;;;;;4996430;28;20462;-70
2023/03/10 03:12:50;;;;;;;13.65;10.32;;;;;;;;;;4996658;28;20139;-70
2023/03/10 03:15:16;;;;;;;14.27;9.70;;;;;;;;;;4996783;28;20044;-68
2023/03/10 03:17:41;;;;;;;13.60;9.65;;;;;;;;;;4996253;28;20030;-68
2023/03/10 03:20:12;;;;;;;15.38;9.82;;;;;;;;;;4996369;28;20524;-68
2023/03/10 03:22:42;;;;;;;14.48;10.02;;;;;;;;;;4996217;28;20034;-68
2023/03/10 03:25:08;;;;;;;15.45;9.82;;;;;;;;;;4995909;28;20053;-70
2023/03/10 03:27:34;;;;;;;16.10;10.90;;;;;;;;;;4979935;28;20065;-71
2023/03/10 03:29:59;;;;;;;21.65;13.23;;;;;;;;;;4996027;28;20042;-71
2023/03/10 03:32:25;;;;;;;20.33;12.70;;;;;;;;;;4979956;28;20056;-70
2023/03/10 03:34:51;;;;;;;18.58;11.77;;;;;;;;;;4996267;28;20038;-66
2023/03/10 03:37:16;;;;;;;14.00;10.05;;;;;;;;;;5013771;28;20108;-65
2023/03/10 03:39:41;;;;;;;13.35;9.63;;;;;;;;;;4996112;28;20030;-68
2023/03/10 03:42:07;;;;;;;15.82;10.27;;;;;;;;;;4996298;28;20049;-68
2023/03/10 03:44:42;;;;;;;13.98;9.80;;;;;;;;;;5013582;28;20401;-67
2023/03/10 03:47:09;;;;;;;16.50;10.55;;;;;;;;;;4995734;28;20049;-68
2023/03/10 03:49:36;;;;;;;14.60;9.90;;;;;;;;;;4996272;28;20045;-68
2023/03/10 03:52:01;;;;;;;15.70;10.73;;;;;;;;;;4996400;28;20048;-69
2023/03/10 03:54:27;;;;;;;12.40;9.93;;;;;;;;;;4999467;28;20046;-68
2023/03/10 03:56:52;;;;;;;15.82;9.63;;;;;;;;;;4999938;28;20121;-68
2023/03/10 03:59:18;;;;;;;19.52;12.75;;;;;;;;;;4999561;28;20049;-65
2023/03/10 04:01:45;;;;;;;15.63;12.35;;;;;;;;;;4999460;28;20090;-67
2023/03/10 04:04:11;;;;;;;16.33;10.70;;;;;;;;;;4999312;28;20049;-68
2023/03/10 04:06:36;;;;;;;18.67;11.27;;;;;;;;;;5016956;28;20030;-66
2023/03/10 04:09:03;;;;;;;16.13;10.10;;;;;;;;;;4999390;28;20377;-65
2023/03/10 04:11:31;;;;;;;14.35;10.38;;;;;;;;;;4999507;28;20042;-66
2023/03/10 04:13:57;;;;;;;12.88;9.82;;;;;;;;;;5017146;28;20038;-66
2023/03/10 04:16:22;;;;;;;17.38;12.00;;;;;;;;;;4999691;28;20025;-67
2023/03/10 04:18:48;;;;;;;17.60;12.48;;;;;;;;;;4998980;28;20071;-67
2023/03/10 04:21:16;;;;;;;25.70;14.52;;;;;;;;;;4999152;28;20044;-66
2023/03/10 04:23:42;;;;;;;22.73;13.35;;;;;;;;;;4999407;28;20044;-65
2023/03/10 04:26:10;;;;;;;29.77;15.13;;;;;;;;;;4999321;28;20034;-65
2023/03/10 04:28:37;;;;;;;49.97;27.55;;;;;;;;;;4998784;28;20021;-65
2023/03/10 04:31:03;;;;;;;40.63;23.92;;;;;;;;;;4982375;28;20387;-67
2023/03/10 04:33:31;;;;;;;71.95;40.72;;;;;;;;;;4998684;28;20042;-68
2023/03/10 04:36:01;;;;;;;24.02;17.58;;;;;;;;;;5016654;28;20037;-69
2023/03/10 04:38:27;;;;;;;88.60;75.63;;;;;;;;;;4999000;28;20034;-69
2023/03/10 04:40:53;;;;;;;22.00;16.48;;;;;;;;;;4999087;28;20032;-69
2023/03/10 04:43:19;;;;;;;15.05;12.38;;;;;;;;;;4998348;28;20033;-69
2023/03/10 04:45:46;;;;;;;19.17;13.10;;;;;;;;;;4999028;28;20026;-72
2023/03/10 04:48:11;;;;;;;13.00;10.45;;;;;;;;;;4998386;28;20034;-70
2023/03/10 04:50:37;;;;;;;10.40;7.85;;;;;;;;;;5009090;23;20080;-71
2023/03/10 04:53:03;;;;;;;11.52;7.40;;;;;;;;;;4999661;23;20047;-72
2023/03/10 04:55:29;;;;;;;10.32;7.90;;;;;;;;;;4978916;28;20449;-71
2023/03/10 04:57:55;;;;;;;7.55;6.18;;;;;;;;;;4978976;28;20027;-72
2023/03/10 05:00:21;;;;;;;8.15;6.38;;;;;;;;;;4978838;28;20038;-71
2023/03/10 05:02:49;;;;;;;9.85;6.72;;;;;;;;;;4978889;28;20034;-71
2023/03/10 05:05:15;;;;;;;9.50;6.32;;;;;;;;;;4978662;28;20125;-70
2023/03/10 05:07:43;;;;;;;9.65;7.00;;;;;;;;;;4979210;28;20053;-72
2023/03/10 05:10:09;;;;;;;8.80;7.55;;;;;;;;;;4993245;28;20042;-72
2023/03/10 05:12:36;;;;;;;9.50;6.38;;;;;;;;;;4965597;28;20043;-64
2023/03/10 05:15:03;;;;;;;7.82;6.00;;;;;;;;;;4959142;28;20166;-72
2023/03/10 05:17:29;;;;;;;8.05;6.45;;;;;;;;;;4959025;28;20046;-72
2023/03/10 05:19:58;;;;;;;9.68;7.00;;;;;;;;;;4959211;28;20046;-72
2023/03/10 05:22:24;;;;;;;9.00;7.55;;;;;;;;;;4958988;28;20038;-72
2023/03/10 05:24:49;;;;;;;11.60;7.95;;;;;;;;;;4959202;28;20486;-71
2023/03/10 05:27:18;;;;;;;27.58;14.50;;;;;;;;;;4959083;28;20051;-71
2023/03/10 05:29:44;;;;;;;53.08;27.33;;;;;;;;;;4958872;28;20089;-71
2023/03/10 05:32:16;;;;;;;23.45;14.05;;;;;;;;;;4958957;28;20100;-71
2023/03/10 05:34:44;;;;;;;22.30;11.27;;;;;;;;;;4959171;28;20069;-71
2023/03/10 05:37:13;;;;;;;18.02;9.38;;;;;;;;;;4959069;28;20062;-71
2023/03/10 05:39:39;;;;;;;11.88;8.75;;;;;;;;;;4975359;28;20036;-72
2023/03/10 05:42:11;;;;;;;12.98;7.90;;;;;;;;;;4943370;28;20094;-72
2023/03/10 05:44:37;;;;;;;12.93;7.75;;;;;;;;;;4958615;28;20042;-72
2023/03/10 05:47:04;;;;;;;12.32;8.02;;;;;;;;;;4959011;28;20041;-72
2023/03/10 05:49:31;;;;;;;15.45;10.38;;;;;;;;;;4994569;28;20030;-71
2023/03/10 05:51:57;;;;;;;17.85;11.63;;;;;;;;;;4977340;28;20486;-72
2023/03/10 05:54:22;;;;;;;20.50;12.18;;;;;;;;;;4977423;28;20042;-72
2023/03/10 05:56:48;;;;;;;16.42;10.63;;;;;;;;;;4977046;28;20448;-72
2023/03/10 05:59:13;;;;;;;16.75;11.18;;;;;;;;;;4976441;28;20034;-72
2023/03/10 06:01:39;;;;;;;16.25;10.45;;;;;;;;;;4977043;28;20034;-72
2023/03/10 06:04:04;;;;;;;19.63;10.20;;;;;;;;;;4994760;28;20030;-72
2023/03/10 06:06:29;;;;;;;12.65;9.35;;;;;;;;;;4994610;28;20390;-69
2023/03/10 06:08:55;;;;;;;13.80;9.13;;;;;;;;;;4994854;28;20057;-72
2023/03/10 06:11:21;;;;;;;11.57;8.55;;;;;;;;;;4976743;28;20041;-72
2023/03/10 06:13:46;;;;;;;19.58;14.10;;;;;;;;;;4994925;28;20066;-72
2023/03/10 06:16:12;;;;;;;21.23;13.68;;;;;;;;;;4994237;28;20447;-72
2023/03/10 06:18:37;;;;;;;19.63;13.10;;;;;;;;;;4977206;28;20036;-66
2023/03/10 06:21:03;;;;;;;13.32;10.02;;;;;;;;;;4994630;28;20497;-67
2023/03/10 06:23:28;;;;;;;11.45;8.13;;;;;;;;;;4995135;28;20069;-64
2023/03/10 06:25:58;;;;;;;9.65;6.60;;;;;;;;;;4994563;28;20486;-64
2023/03/10 06:28:24;;;;;;;10.63;7.30;;;;;;;;;;4994690;28;20034;-64
2023/03/10 06:30:53;;;;;;;9.50;7.32;;;;;;;;;;4994546;28;20084;-65
2023/03/10 06:33:18;;;;;;;9.18;6.93;;;;;;;;;;4977434;28;20134;-65
2023/03/10 06:35:44;;;;;;;9.25;6.53;;;;;;;;;;4994485;28;20129;-65
2023/03/10 06:38:09;;;;;;;8.32;6.22;;;;;;;;;;4994706;28;20030;-65
2023/03/10 06:40:49;;;;;;;8.05;6.30;;;;;;;;;;4994217;28;20532;-65
2023/03/10 06:43:25;;;;;;;8.50;7.20;;;;;;;;;;4961630;28;20038;-65
2023/03/10 06:45:51;;;;;;;9.30;7.30;;;;;;;;;;4992867;28;20049;-65
2023/03/10 06:48:16;;;;;;;6.38;5.47;;;;;;;;;;4993068;28;20034;-65
2023/03/10 06:50:47;;;;;;;4.82;4.32;;;;;;;;;;4974999;28;20540;-60
2023/03/10 06:53:13;;;;;;;7.00;4.68;;;;;;;;;;4992661;28;20053;-65
2023/03/10 06:55:38;;;;;;;5.07;3.92;;;;;;;;;;4992253;28;20047;-65
2023/03/10 06:58:03;;;;;;;4.70;3.63;;;;;;;;;;4991595;28;20032;-65
2023/03/10 07:00:29;;;;;;;4.68;3.88;;;;;;;;;;4992001;28;20045;-65
2023/03/10 07:02:55;;;;;;;4.63;3.75;;;;;;;;;;4959260;28;20121;-65
2023/03/10 07:05:22;;;;;;;6.10;4.20;;;;;;;;;;4992886;28;20042;-65
2023/03/10 07:07:52;;;;;;;5.15;3.60;;;;;;;;;;4992658;28;20030;-65
2023/03/10 07:10:17;;;;;;;8.98;4.03;;;;;;;;;;4975184;28;20047;-65
2023/03/10 07:12:43;;;;;;;5.72;4.05;;;;;;;;;;4993793;28;20044;-65
2023/03/10 07:15:08;;;;;;;5.57;3.63;;;;;;;;;;4976547;28;20034;-65
2023/03/10 07:17:34;;;;;;;6.63;4.57;;;;;;;;;;4994532;28;20073;-65
2023/03/10 07:19:59;;;;;;;7.65;4.30;;;;;;;;;;4994002;28;20375;-65
2023/03/10 07:22:24;;;;;;;6.35;3.58;;;;;;;;;;4994254;28;20117;-59
2023/03/10 07:24:52;;;;;;;4.85;3.75;;;;;;;;;;4993935;28;20049;-60
2023/03/10 07:27:18;;;;;;;4.90;3.75;;;;;;;;;;4995024;28;20037;-64
2023/03/10 07:29:43;;;;;;;3.92;2.70;;;;;;;;;;4997823;28;20038;-65
2023/03/10 07:32:08;;;;;;;4.28;2.50;;;;;;;;;;4998022;28;20073;-65
2023/03/10 07:34:33;;;;;;;2.92;2.25;;;;;;;;;;4997666;28;20049;-65
2023/03/10 07:36:59;;;;;;;2.55;2.00;;;;;;;;;;4980168;28;20038;-65
2023/03/10 07:39:24;;;;;;;2.28;1.80;;;;;;;;;;4997881;28;20037;-65
2023/03/10 07:41:50;;;;;;;3.65;2.00;;;;;;;;;;4997534;28;20035;-65
2023/03/10 07:44:15;;;;;;;2.30;1.75;;;;;;;;;;4980426;28;20077;-64
2023/03/10 07:46:40;;;;;;;3.00;1.88;;;;;;;;;;4997764;28;20046;-65
2023/03/10 07:49:06;;;;;;;2.70;2.08;;;;;;;;;;4980055;28;20038;-64
2023/03/10 07:51:31;;;;;;;3.95;2.53;;;;;;;;;;4997696;28;20124;-60
2023/03/10 07:53:56;;;;;;;3.58;2.35;;;;;;;;;;4997176;28;20098;-59
2023/03/10 07:56:22;;;;;;;3.40;1.90;;;;;;;;;;4979878;28;20070;-59
2023/03/10 07:58:47;;;;;;;4.90;2.22;;;;;;;;;;4997510;28;20038;-59
2023/03/10 08:01:16;;;;;;;2.75;2.08;;;;;;;;;;4997513;28;20042;-64
2023/03/10 08:03:42;;;;;;;2.67;1.60;;;;;;;;;;4997194;28;20034;-64
2023/03/10 08:06:07;;;;;;;3.33;2.35;;;;;;;;;;4997132;28;20463;-65
2023/03/10 08:08:33;;;;;;;3.30;2.00;;;;;;;;;;4979597;28;20035;-64
2023/03/10 08:10:59;;;;;;;2.67;2.03;;;;;;;;;;4997325;28;20080;-64
2023/03/10 08:13:24;;;;;;;3.35;2.20;;;;;;;;;;4997309;28;20125;-65
2023/03/10 08:15:50;;;;;;;3.95;1.88;;;;;;;;;;4996894;28;20079;-65
2023/03/10 08:18:15;;;;;;;4.05;2.10;;;;;;;;;;4996969;28;20045;-65
2023/03/10 08:20:40;;;;;;;2.30;2.10;;;;;;;;;;4996828;28;20026;-64
2023/03/10 08:23:06;;;;;;;3.50;1.90;;;;;;;;;;4979383;28;20046;-65
2023/03/10 08:25:31;;;;;;;2.03;1.80;;;;;;;;;;4996828;28;20034;-64
2023/03/10 08:27:56;;;;;;;2.17;1.80;;;;;;;;;;4996793;28;20441;-64
2023/03/10 08:30:22;;;;;;;1.80;1.70;;;;;;;;;;4997036;28;20026;-64
2023/03/10 08:32:48;;;;;;;2.53;1.50;;;;;;;;;;4996679;28;20374;-65
2023/03/10 08:35:13;;;;;;;2.00;1.88;;;;;;;;;;4996515;28;20492;-65
2023/03/10 08:37:39;;;;;;;2.30;1.80;;;;;;;;;;4996574;28;20117;-64
2023/03/10 08:40:06;;;;;;;3.85;2.00;;;;;;;;;;4995523;28;20031;-64
2023/03/10 08:42:35;;;;;;;3.45;2.00;;;;;;;;;;4996782;28;20466;-65
2023/03/10 08:45:00;;;;;;;1.88;1.60;;;;;;;;;;4996430;28;20046;-64
2023/03/10 08:47:27;;;;;;;2.42;1.90;;;;;;;;;;4996400;28;20046;-64
2023/03/10 08:49:52;;;;;;;2.35;1.60;;;;;;;;;;4996648;28;20497;-64
2023/03/10 08:52:17;;;;;;;4.15;2.00;;;;;;;;;;4996382;28;20046;-64
2023/03/10 08:54:43;;;;;;;2.00;1.80;;;;;;;;;;4996214;28;20038;-65
2023/03/10 08:57:08;;;;;;;1.85;1.25;;;;;;;;;;4996206;28;20074;-64
2023/03/10 08:59:34;;;;;;;1.90;1.40;;;;;;;;;;4996189;28;20046;-64
2023/03/10 09:01:59;;;;;;;2.08;1.48;;;;;;;;;;4996662;28;20030;-65
2023/03/10 09:04:24;;;;;;;1.40;1.23;;;;;;;;;;4996287;28;20043;-65
2023/03/10 09:06:51;;;;;;;4.65;1.70;;;;;;;;;;4978667;28;20465;-65
2023/03/10 09:09:16;;;;;;;3.13;1.70;;;;;;;;;;4996543;28;20089;-65
2023/03/10 09:11:42;;;;;;;2.83;1.60;;;;;;;;;;4995914;28;20043;-65
2023/03/10 09:14:08;;;;;;;1.27;1.17;;;;;;;;;;4996080;28;20034;-65
2023/03/10 09:16:34;;;;;;;2.55;1.20;;;;;;;;;;4978453;28;20485;-65
2023/03/10 09:18:59;;;;;;;1.55;1.42;;;;;;;;;;4995826;28;20030;-65
2023/03/10 09:21:25;;;;;;;1.55;1.25;;;;;;;;;;4978346;28;20038;-65
2023/03/10 09:23:51;;;;;;;2.17;1.45;;;;;;;;;;4996003;28;20042;-65
2023/03/10 09:26:17;;;;;;;3.38;1.40;;;;;;;;;;4995684;28;20061;-65
2023/03/10 09:28:42;;;;;;;2.63;1.20;;;;;;;;;;4995908;28;20486;-65
2023/03/10 09:31:08;;;;;;;1.15;1.02;;;;;;;;;;4995575;28;20482;-64
2023/03/10 09:33:34;;;;;;;1.25;1.20;;;;;;;;;;4995468;28;20034;-65
2023/03/10 09:36:02;;;;;;;1.80;1.30;;;;;;;;;;4978031;28;20043;-64
2023/03/10 09:38:27;;;;;;;1.33;1.23;;;;;;;;;;4995702;28;20039;-64
2023/03/10 09:41:13;;;;;;;1.65;1.50;;;;;;;;;;4995653;28;20026;-65
2023/03/10 09:43:41;;;;;;;1.92;1.20;;;;;;;;;;4945809;28;20050;-64
2023/03/10 09:48:53;;;;;;;1.10;1.00;;;;;;;;;;5011219;23;20060;-60
2023/03/10 09:51:24;;;;;;;2.20;1.15;;;;;;;;;;5032693;23;20058;31
2023/03/10 09:53:52;;;;;;;1.42;1.10;;;;;;;;;;4935758;29;20086;-65
2023/03/10 09:56:19;;;;;;;1.55;1.10;;;;;;;;;;4937174;29;20040;-65
2023/03/10 09:58:49;;;;;;;1.55;1.13;;;;;;;;;;4937465;29;20051;-65
2023/03/10 10:01:16;;;;;;;2.65;1.00;;;;;;;;;;4937188;29;20040;-64
2023/03/10 10:03:43;;;;;;;2.05;1.02;;;;;;;;;;4937084;29;20067;-64
2023/03/10 10:06:15;;;;;;;2.65;1.20;;;;;;;;;;4937060;29;20040;-65
2023/03/10 10:08:42;;;;;;;1.17;1.08;;;;;;;;;;4936961;29;20071;-64
2023/03/10 10:11:12;;;;;;;1.20;0.90;;;;;;;;;;4936974;29;20122;-65
2023/03/10 10:13:38;;;;;;;1.45;1.30;;;;;;;;;;4937457;29;20040;-64
2023/03/10 10:16:25;;;;;;;1.92;1.23;;;;;;;;;;4936937;29;20558;-64
2023/03/10 10:18:54;;;;;;;1.73;1.60;;;;;;;;;;4937161;29;20047;-65
2023/03/10 10:21:24;;;;;;;0.82;0.82;;;;;;;;;;4937126;29;20086;-65
2023/03/10 10:23:51;;;;;;;1.33;0.90;;;;;;;;;;4936710;29;20512;-65
2023/03/10 10:26:18;;;;;;;1.27;1.08;;;;;;;;;;4936752;29;20086;-65
2023/03/10 10:28:46;;;;;;;1.55;1.00;;;;;;;;;;4920457;29;20035;-65
2023/03/10 10:31:13;;;;;;;2.65;0.90;;;;;;;;;;4936657;29;20111;-65
2023/03/10 10:33:52;;;;;;;0.90;0.90;;;;;;;;;;4936869;29;20050;-65
2023/03/10 10:36:18;;;;;;;1.70;1.45;;;;;;;;;;4936899;29;20059;-65
2023/03/10 10:38:50;;;;;;;1.75;1.10;;;;;;;;;;4936543;29;20456;-64
2023/03/10 10:41:18;;;;;;;2.15;1.00;;;;;;;;;;4937081;29;20040;-65
2023/03/10 10:43:44;;;;;;;1.10;0.90;;;;;;;;;;4936504;29;20471;-65
2023/03/10 10:46:11;;;;;;;0.90;0.90;;;;;;;;;;4936755;29;20388;-64
2023/03/10 10:48:40;;;;;;;2.45;0.90;;;;;;;;;;4936722;29;20122;-64
2023/03/10 10:51:27;;;;;;;1.23;0.70;;;;;;;;;;4936669;29;20071;-65
2023/03/10 10:53:53;;;;;;;1.80;1.10;;;;;;;;;;4936314;29;20051;-65
2023/03/10 10:56:19;;;;;;;2.10;1.20;;;;;;;;;;4936389;29;20480;-65
2023/03/10 10:58:58;;;;;;;0.40;0.40;;;;;;;;;;4936339;29;20047;-65
2023/03/10 11:01:24;;;;;;;0.70;0.70;;;;;;;;;;4936694;29;20074;-65
2023/03/10 11:04:02;;;;;;;1.20;1.00;;;;;;;;;;4942852;29;20059;-64
2023/03/10 11:06:30;;;;;;;0.60;0.60;;;;;;;;;;4942582;29;20476;-65
2023/03/10 11:09:19;;;;;;;0.70;0.60;;;;;;;;;;4942605;29;20038;-65
2023/03/10 11:11:48;;;;;;;0.75;0.75;;;;;;;;;;4933953;29;20035;-64
2023/03/10 11:14:13;;;;;;;2.83;0.73;;;;;;;;;;4943047;29;20142;-64
2023/03/10 11:16:58;;;;;;;0.80;0.80;;;;;;;;;;4925524;29;20532;-64
2023/03/10 11:19:44;;;;;;;0.47;0.47;;;;;;;;;;4942789;29;20468;-64
2023/03/10 11:22:33;;;;;;;3.60;1.20;;;;;;;;;;4942736;29;20032;-64
2023/03/10 11:25:01;;;;;;;0.95;0.70;;;;;;;;;;4937072;29;20052;-65
2023/03/10 11:27:38;;;;;;;1.25;0.68;;;;;;;;;;4943009;29;20075;-59
2023/03/10 11:30:16;;;;;;;1.27;0.50;;;;;;;;;;4942976;29;20047;-59
2023/03/10 11:33:02;;;;;;;1.13;0.80;;;;;;;;;;4942630;29;20063;-59
2023/03/10 11:35:42;;;;;;;1.30;1.20;;;;;;;;;;4942548;29;20049;-59
2023/03/10 11:38:11;;;;;;;3.47;1.67;;;;;;;;;;4942665;29;20059;-59
2023/03/10 11:40:47;;;;;;;1.15;1.02;;;;;;;;;;4942616;29;20483;-59
2023/03/10 11:43:18;;;;;;;1.17;0.98;;;;;;;;;;4942625;29;20452;-59
2023/03/10 11:45:53;;;;;;;2.90;1.20;;;;;;;;;;4925122;29;20043;-59
2023/03/10 11:48:19;;;;;;;1.38;1.27;;;;;;;;;;4942825;29;20066;-59
2023/03/10 11:50:52;;;;;;;2.13;1.55;;;;;;;;;;4925290;29;20083;-59
2023/03/10 11:53:27;;;;;;;3.45;1.60;;;;;;;;;;4957892;29;20044;-59
2023/03/10 11:55:53;;;;;;;1.10;0.93;;;;;;;;;;4961569;29;20047;-59
2023/03/10 11:58:27;;;;;;;2.05;1.02;;;;;;;;;;4961677;29;20032;-59
2023/03/10 12:00:53;;;;;;;2.05;1.40;;;;;;;;;;4961919;28;20085;-59
2023/03/10 12:03:23;;;;;;;3.38;1.67;;;;;;;;;;4961363;29;20122;-59
2023/03/10 12:05:51;;;;;;;2.78;1.65;;;;;;;;;;4976244;28;20071;-59
2023/03/10 12:08:17;;;;;;;2.35;1.77;;;;;;;;;;4961585;29;20379;-59
2023/03/10 12:10:42;;;;;;;2.10;1.52;;;;;;;;;;4961262;28;20053;-59
2023/03/10 12:13:19;;;;;;;2.50;2.20;;;;;;;;;;4961072;28;20035;-59
2023/03/10 12:15:45;;;;;;;5.13;2.53;;;;;;;;;;4958464;29;20042;-59
2023/03/10 12:18:10;;;;;;;5.18;3.28;;;;;;;;;;4958491;29;20032;-59
2023/03/10 12:20:36;;;;;;;4.38;2.83;;;;;;;;;;4958177;29;20040;-59
2023/03/10 12:23:10;;;;;;;5.07;3.38;;;;;;;;;;4958388;29;20036;-59
2023/03/10 12:25:37;;;;;;;4.65;3.38;;;;;;;;;;4958096;29;20047;-59
2023/03/10 12:28:14;;;;;;;7.38;4.00;;;;;;;;;;4958280;29;20055;-65
2023/03/10 12:30:44;;;;;;;6.82;3.78;;;;;;;;;;4958076;29;20035;-65
2023/03/10 12:33:29;;;;;;;5.70;4.28;;;;;;;;;;4957966;29;20039;-65
2023/03/10 12:36:06;;;;;;;7.53;3.90;;;;;;;;;;4958374;29;20054;-65
2023/03/10 12:38:40;;;;;;;3.92;2.95;;;;;;;;;;4957901;29;20039;-65
2023/03/10 12:41:06;;;;;;;5.78;3.33;;;;;;;;;;4957910;29;20506;-65
2023/03/10 12:43:34;;;;;;;4.07;3.42;;;;;;;;;;4956603;29;20039;-65
2023/03/10 12:46:01;;;;;;;5.40;3.63;;;;;;;;;;4940900;29;20114;-65
2023/03/10 12:48:26;;;;;;;6.65;4.32;;;;;;;;;;4957640;29;20031;-65
2023/03/10 12:51:00;;;;;;;6.65;4.40;;;;;;;;;;4958138;29;20114;-65
2023/03/10 12:53:34;;;;;;;8.50;4.35;;;;;;;;;;4957451;29;20094;-65
2023/03/10 12:56:19;;;;;;;8.43;4.72;;;;;;;;;;4957447;29;20047;-65
2023/03/10 12:58:48;;;;;;;9.38;4.82;;;;;;;;;;4957976;29;20126;-60
2023/03/10 13:01:17;;;;;;;9.02;5.38;;;;;;;;;;4957397;29;20027;-65
2023/03/10 13:03:48;;;;;;;7.25;5.10;;;;;;;;;;4957657;29;20035;-65
2023/03/10 13:06:13;;;;;;;9.70;5.15;;;;;;;;;;4940164;29;20040;-65
2023/03/10 13:08:41;;;;;;;7.95;4.80;;;;;;;;;;4957586;29;20545;-65
2023/03/10 13:11:30;;;;;;;5.38;4.40;;;;;;;;;;4957267;29;20035;-66
2023/03/10 13:14:00;;;;;;;7.05;4.70;;;;;;;;;;4946687;29;20467;-65
2023/03/10 13:16:25;;;;;;;9.98;4.68;;;;;;;;;;4957193;29;20039;-66
2023/03/10 13:18:51;;;;;;;7.53;4.63;;;;;;;;;;4957045;29;20043;-66
2023/03/10 13:21:23;;;;;;;8.60;5.28;;;;;;;;;;4957365;29;20027;-66
2023/03/10 13:23:49;;;;;;;7.03;4.63;;;;;;;;;;4957268;29;20464;-65
2023/03/10 13:26:15;;;;;;;7.47;4.75;;;;;;;;;;4956456;28;20083;-65
2023/03/10 13:28:49;;;;;;;6.78;4.40;;;;;;;;;;4957201;29;20095;-66
2023/03/10 13:31:17;;;;;;;8.10;5.03;;;;;;;;;;4957122;29;20050;-60
2023/03/10 13:33:44;;;;;;;8.43;5.03;;;;;;;;;;4939624;29;20054;-65
2023/03/10 13:36:28;;;;;;;6.72;4.10;;;;;;;;;;4956772;29;20028;-65
2023/03/10 13:38:55;;;;;;;5.72;4.20;;;;;;;;;;4956964;29;20456;-65
2023/03/10 13:41:20;;;;;;;6.97;5.00;;;;;;;;;;4956891;29;20094;-66
2023/03/10 13:43:47;;;;;;;6.75;5.63;;;;;;;;;;4956625;29;20046;-65
2023/03/10 13:46:21;;;;;;;9.60;5.53;;;;;;;;;;4957110;29;20039;-65
2023/03/10 13:48:47;;;;;;;8.18;5.45;;;;;;;;;;4956816;29;20391;-65
2023/03/10 13:51:17;;;;;;;7.13;4.03;;;;;;;;;;4956656;29;20038;-65
2023/03/10 13:53:43;;;;;;;5.47;3.67;;;;;;;;;;4956282;29;20479;-65
2023/03/10 13:56:16;;;;;;;5.63;3.50;;;;;;;;;;4956393;29;20042;-65
2023/03/10 13:58:42;;;;;;;6.35;3.83;;;;;;;;;;4956676;29;20467;-66
2023/03/10 14:01:12;;;;;;;3.97;2.60;;;;;;;;;;4956343;29;20023;-65
2023/03/10 14:03:47;;;;;;;3.13;2.30;;;;;;;;;;4956343;29;20118;-66
2023/03/10 14:06:13;;;;;;;6.30;2.50;;;;;;;;;;4956274;29;20038;-65
2023/03/10 14:08:38;;;;;;;3.08;1.73;;;;;;;;;;4956498;29;20043;-65
2023/03/10 14:11:43;;;;;;;2.97;2.33;;;;;;;;;;4956182;29;20460;-65
2023/03/10 14:14:09;;;;;;;5.03;2.08;;;;;;;;;;4878739;29;20065;-66
2023/03/10 14:16:49;;;;;;;1.77;1.58;;;;;;;;;;4942424;29;20047;-65
2023/03/10 14:19:35;;;;;;;1.17;0.93;;;;;;;;;;4956267;29;20031;-65
2023/03/10 14:22:00;;;;;;;2.88;1.80;;;;;;;;;;4956173;29;20047;-65
2023/03/10 14:24:26;;;;;;;3.47;1.80;;;;;;;;;;4954792;29;20047;-65
2023/03/10 14:26:52;;;;;;;3.25;1.48;;;;;;;;;;4956428;29;20074;-65
2023/03/10 14:29:17;;;;;;;7.50;2.90;;;;;;;;;;4954548;29;20515;-65
2023/03/10 14:31:48;;;;;;;11.73;5.65;;;;;;;;;;4955858;29;20054;-65
2023/03/10 14:34:13;;;;;;;13.77;6.82;;;;;;;;;;4955743;29;20039;-65
2023/03/10 14:36:39;;;;;;;17.15;7.40;;;;;;;;;;4953881;28;20039;-72
2023/03/10 14:39:04;;;;;;;14.30;7.65;;;;;;;;;;4954718;29;20395;-72
2023/03/10 14:41:30;;;;;;;4.28;3.40;;;;;;;;;;4953730;29;20446;-72